New Orleans, LA (70112)

7:37 PM CDT on April 26, 2017 (GMT -0500)
Faubourg St. John | | Change Station

Elev 9 ft 29.98 °N, 90.08 °W | Updated 13 seconds ago

Overcast
Overcast
78.1 °F
Feels Like 81 °F
N
2.0
Wind Variable Wind from South
Gusts 2.5 mph

Today
High -- | Low -- °F
--% Chance of Precip.
Yesterday
High -- | Low -- °F
Precip. -- in
Pressure 29.62 in
Visibility 10.0 miles
Clouds Mostly Cloudy 1700 ft
Mostly Cloudy 2300 ft
Overcast 3000 ft
Heat Index 81 °F
Dew Point 72 °F
Humidity 81%
Rainfall 0.00 in
Snow Depth Not available.
6:21 AM 7:34 PM
New Moon, 0% visible
METAR KNEW 262353Z 16013KT 10SM BKN017 BKN023 OVC030 26/23 A2964 RMK AO2 SLP031 T02610228 10283 20261 56015
Pressure 29.62 in
Visibility 10.0 miles
Clouds Mostly Cloudy 1700 ft
Mostly Cloudy 2300 ft
Overcast 3000 ft
Heat Index 81 °F
Dew Point 72 °F
Humidity 81%
Rainfall 0.00 in
Snow Depth Not available.
6:21 AM 7:34 PM
New Moon, 0% visible
METAR KNEW 262353Z 16013KT 10SM BKN017 BKN023 OVC030 26/23 A2964 RMK AO2 SLP031 T02610228 10283 20261 56015

Get Severe Weather Alerts

Thanks for signing up!

Be on the lookout for a verification email in your inbox.

You'll start receiving the daily forecast at 8 AM.

×

10-Day Weather Forecast

Almanac

Astronomy

Apr. 26, 2017 Rise Set
Actual Time
Civil Twilight
Nautical Twilight
Astronomical Twilight
Moon
Length of Visible Light
Length of Day
Tomorrow will be .
, % of the Moon is Illuminated

Today's Extremes

State Highs State Lows

Community

WunderPhotos

WunderBlog® & News

Nearby

Air Quality

  Air Quality AQ Index Pollutant
Not available.

Snow Depth

Station Depth Elevation

Earthquake Activity

City Distance Mag. Time & Date
Minimum magnitude displayed is 2.5.

Coastal Water Temperatures

Place Temperature

Stations

Nearby Weather Stations

Station Location Temp. Windchill Dew Point Humidity Wind Precip. Elev Updated Type
                   

Watches & Warnings

There are currently no watches in effect.